Time;durP1;ratioP1;P1;durP2;ratioP2;P2;SDS_P1;SDS_P2;PMS_P1;PMS_P2;Temp;Humidity;BMP_temperature;BMP_pressure;BME280_temperature;BME280_humidity;BME280_pressure;Samples;Min_cycle;Max_cycle;Signal;HPM_P1;HPM_P2
2023/09/27 00:00:09;;;;;;;0.10;0.10;;;15.10;99.90;;;;;;4978399;28;20687;-81
2023/09/27 00:02:35;;;;;;;0.10;0.10;;;15.10;99.90;;;;;;4977588;28;20207;-81
2023/09/27 00:05:01;;;;;;;0.10;0.10;;;15.10;99.90;;;;;;4992403;28;20267;-81
2023/09/27 00:07:26;;;;;;;0.10;0.10;;;15.20;99.90;;;;;;4981856;28;20275;-82
2023/09/27 00:09:52;;;;;;;0.10;0.10;;;15.20;99.90;;;;;;4980972;28;20271;-81
2023/09/27 00:12:18;;;;;;;0.10;0.10;;;15.20;99.90;;;;;;4982415;28;20189;-81
2023/09/27 00:14:44;;;;;;;0.10;0.10;;;15.00;99.90;;;;;;4980304;28;20191;-81
2023/09/27 00:17:11;;;;;;;0.10;0.10;;;14.80;99.90;;;;;;4981127;28;20204;-81
2023/09/27 00:19:36;;;;;;;0.10;0.10;;;14.50;99.90;;;;;;4979865;28;20208;-81
2023/09/27 00:22:02;;;;;;;0.10;0.10;;;14.40;99.90;;;;;;4979485;28;20191;-81
2023/09/27 00:24:29;;;;;;;0.10;0.10;;;14.40;99.90;;;;;;4980335;28;20322;-81
2023/09/27 00:26:54;;;;;;;0.10;0.10;;;14.50;99.90;;;;;;4979347;28;20857;-81
2023/09/27 00:29:20;;;;;;;0.10;0.10;;;14.50;99.90;;;;;;4978460;28;20208;-81
2023/09/27 00:31:45;;;;;;;0.10;0.10;;;14.70;99.90;;;;;;4983364;28;20198;-81
2023/09/27 00:34:11;;;;;;;0.10;0.10;;;14.70;99.90;;;;;;4978215;28;20246;-81
2023/09/27 00:36:36;;;;;;;0.10;0.10;;;14.80;99.90;;;;;;4982378;28;20274;-81
2023/09/27 00:39:03;;;;;;;0.10;0.10;;;14.80;99.90;;;;;;4979869;28;20215;-81
2023/09/27 00:41:29;;;;;;;0.10;0.10;;;14.80;99.90;;;;;;4980275;28;20246;-81
2023/09/27 00:43:55;;;;;;;0.10;0.10;;;14.90;99.90;;;;;;4981081;28;20197;-81
2023/09/27 00:46:22;;;;;;;0.10;0.10;;;14.80;99.90;;;;;;4980336;28;20209;-81
2023/09/27 00:48:47;;;;;;;0.10;0.10;;;14.80;99.90;;;;;;4978316;28;20224;-81
2023/09/27 00:51:14;;;;;;;0.10;0.10;;;14.80;99.90;;;;;;4980762;28;20195;-82
2023/09/27 00:53:41;;;;;;;0.10;0.10;;;14.70;99.90;;;;;;4977464;28;20199;-81
2023/09/27 00:56:08;;;;;;;0.10;0.10;;;14.80;99.90;;;;;;4978397;28;20294;-81
2023/09/27 00:58:34;;;;;;;0.10;0.10;;;14.80;99.90;;;;;;4979373;28;20214;-81
2023/09/27 01:01:00;;;;;;;0.10;0.10;;;14.70;99.90;;;;;;4978359;28;20180;-81
2023/09/27 01:03:26;;;;;;;0.10;0.10;;;14.70;99.90;;;;;;4978437;28;20842;-81
2023/09/27 01:05:52;;;;;;;0.87;0.83;;;14.70;99.90;;;;;;4980275;28;20220;-81
2023/09/27 01:08:17;;;;;;;0.10;0.10;;;14.60;99.90;;;;;;4980751;28;20188;-81
2023/09/27 01:10:45;;;;;;;0.10;0.10;;;14.60;99.90;;;;;;4979526;28;20218;-81
2023/09/27 01:13:11;;;;;;;0.10;0.10;;;14.60;99.90;;;;;;4979920;28;20652;-81
2023/09/27 01:15:37;;;;;;;0.10;0.10;;;14.60;99.90;;;;;;4979914;28;20190;-81
2023/09/27 01:18:02;;;;;;;0.10;0.10;;;14.60;99.90;;;;;;4979561;28;20306;-81
2023/09/27 01:20:29;;;;;;;0.10;0.10;;;14.60;99.90;;;;;;4979229;28;20195;-81
2023/09/27 01:22:58;;;;;;;0.10;0.10;;;14.60;99.90;;;;;;4980099;28;21012;-81
2023/09/27 01:25:32;;;;;;;0.10;0.10;;;14.60;99.90;;;;;;4980716;28;20179;-81
2023/09/27 01:28:03;;;;;;;0.10;0.10;;;14.60;99.90;;;;;;4978602;28;20183;-81
2023/09/27 01:30:32;;;;;;;0.10;0.10;;;14.50;99.90;;;;;;4981512;28;20221;-81
2023/09/27 01:33:06;;;;;;;0.07;0.07;;;14.40;99.90;;;;;;4993382;28;20201;-81
2023/09/27 01:35:33;;;;;;;0.10;0.10;;;14.40;99.90;;;;;;4977756;28;20187;-81
2023/09/27 01:37:59;;;;;;;0.10;0.10;;;14.40;99.90;;;;;;4977365;28;21000;-81
2023/09/27 01:40:29;;;;;;;0.03;0.03;;;14.40;99.90;;;;;;4977967;28;20200;-81
2023/09/27 01:42:55;;;;;;;0.10;0.10;;;14.40;99.90;;;;;;4978679;28;20190;-81
2023/09/27 01:45:21;;;;;;;0.10;0.10;;;14.40;99.90;;;;;;4994382;28;20554;-81
2023/09/27 01:47:47;;;;;;;0.10;0.10;;;14.30;99.90;;;;;;4979093;28;20840;-81
2023/09/27 01:50:12;;;;;;;0.10;0.10;;;14.20;99.90;;;;;;4978639;28;20321;-81
2023/09/27 01:52:38;;;;;;;0.10;0.10;;;14.20;99.90;;;;;;4978558;28;20209;-81
2023/09/27 01:55:04;;;;;;;0.10;0.10;;;14.20;99.90;;;;;;4978361;28;20219;-81
2023/09/27 01:57:30;;;;;;;0.10;0.10;;;14.10;99.90;;;;;;4981565;28;20195;-81
2023/09/27 01:59:55;;;;;;;0.10;0.10;;;14.20;99.90;;;;;;4978042;28;20211;-81
2023/09/27 02:02:21;;;;;;;0.03;0.03;;;14.10;99.90;;;;;;4980661;28;20267;-81
2023/09/27 02:04:46;;;;;;;0.10;0.10;;;14.20;99.90;;;;;;4979559;28;20186;-81
2023/09/27 02:07:12;;;;;;;0.10;0.10;;;14.30;99.90;;;;;;4979095;28;20205;-81
2023/09/27 02:09:37;;;;;;;0.10;0.10;;;14.30;99.90;;;;;;4977622;28;20262;-81
2023/09/27 02:12:03;;;;;;;0.10;0.10;;;14.30;99.90;;;;;;4978481;28;20191;-81
2023/09/27 02:14:29;;;;;;;0.10;0.10;;;14.20;99.90;;;;;;4977340;28;20266;-81
2023/09/27 02:16:55;;;;;;;0.10;0.10;;;14.20;99.90;;;;;;4976814;28;20301;-81
2023/09/27 02:19:21;;;;;;;0.10;0.10;;;14.20;99.90;;;;;;4970952;28;20196;-81
2023/09/27 02:21:46;;;;;;;0.00;0.00;;;14.20;99.90;;;;;;4978868;28;21159;-81
2023/09/27 02:24:12;;;;;;;0.10;0.10;;;14.20;99.90;;;;;;4979613;28;20182;-81
2023/09/27 02:26:37;;;;;;;0.10;0.10;;;14.20;99.90;;;;;;4980020;28;20192;-81
2023/09/27 02:29:03;;;;;;;0.00;0.00;;;14.20;99.90;;;;;;4983951;28;20236;-81
2023/09/27 02:31:29;;;;;;;0.10;0.10;;;14.20;99.90;;;;;;4985166;28;20193;-81
2023/09/27 02:33:55;;;;;;;0.10;0.10;;;14.20;99.90;;;;;;4984296;28;20195;-81
2023/09/27 02:36:20;;;;;;;0.10;0.10;;;14.10;99.90;;;;;;4984165;28;20210;-81
2023/09/27 02:38:46;;;;;;;0.10;0.10;;;14.10;99.90;;;;;;4982613;28;20222;-81
2023/09/27 02:41:11;;;;;;;0.10;0.10;;;13.90;99.90;;;;;;4982196;28;20184;-81
2023/09/27 02:43:37;;;;;;;0.10;0.10;;;13.80;99.90;;;;;;4983283;28;20658;-81
2023/09/27 02:46:03;;;;;;;0.10;0.10;;;13.80;99.90;;;;;;4982357;28;20211;-81
2023/09/27 02:48:29;;;;;;;0.10;0.10;;;13.80;99.90;;;;;;4980761;28;20213;-81
2023/09/27 02:50:55;;;;;;;0.10;0.10;;;13.70;99.90;;;;;;4981536;28;20278;-81
2023/09/27 02:53:21;;;;;;;0.10;0.10;;;13.60;99.90;;;;;;4983435;28;20183;-81
2023/09/27 02:55:47;;;;;;;0.10;0.10;;;13.60;99.90;;;;;;4980766;28;20259;-81
2023/09/27 02:58:12;;;;;;;0.10;0.10;;;13.60;99.90;;;;;;4981993;28;20250;-81
2023/09/27 03:00:38;;;;;;;0.10;0.10;;;13.80;99.90;;;;;;4981222;28;20548;-81
2023/09/27 03:03:03;;;;;;;0.10;0.10;;;13.70;99.90;;;;;;4981952;28;20206;-81
2023/09/27 03:05:30;;;;;;;0.10;0.10;;;13.40;99.90;;;;;;4981884;28;20277;-81
2023/09/27 03:07:58;;;;;;;0.10;0.10;;;13.20;99.90;;;;;;4983248;28;20678;-81
2023/09/27 03:10:23;;;;;;;0.10;0.10;;;13.20;99.90;;;;;;4981626;28;20233;-81
2023/09/27 03:12:49;;;;;;;0.00;0.00;;;13.30;99.90;;;;;;4981442;28;20232;-81
2023/09/27 03:15:15;;;;;;;0.10;0.10;;;13.40;99.90;;;;;;4980186;28;20267;-81
2023/09/27 03:17:42;;;;;;;0.10;0.10;;;13.50;99.90;;;;;;4981783;28;20225;-81
2023/09/27 03:20:18;;;;;;;0.10;0.10;;;13.60;99.90;;;;;;4979761;28;20204;-81
2023/09/27 03:22:45;;;;;;;0.10;0.10;;;13.70;99.90;;;;;;4982166;28;20680;-81
2023/09/27 03:25:11;;;;;;;0.10;0.10;;;13.70;99.90;;;;;;4981534;28;20211;-81
2023/09/27 03:27:37;;;;;;;0.10;0.10;;;13.70;99.90;;;;;;4982219;28;20178;-81
2023/09/27 03:30:04;;;;;;;0.10;0.10;;;13.70;99.90;;;;;;4981214;28;20222;-81
2023/09/27 03:32:31;;;;;;;0.10;0.10;;;13.70;99.90;;;;;;4981826;28;20231;-81
2023/09/27 03:34:57;;;;;;;0.10;0.10;;;13.60;99.90;;;;;;4981234;28;20187;-81
2023/09/27 03:37:23;;;;;;;0.10;0.10;;;13.50;99.90;;;;;;4979638;28;20265;-81
2023/09/27 03:39:52;;;;;;;0.10;0.10;;;13.50;99.90;;;;;;4979482;28;20214;-81
2023/09/27 03:42:21;;;;;;;0.10;0.10;;;13.00;99.90;;;;;;4980139;28;20186;-81
2023/09/27 03:44:48;;;;;;;0.10;0.10;;;13.10;99.90;;;;;;4981436;28;20177;-81
2023/09/27 03:47:14;;;;;;;0.10;0.10;;;13.10;99.90;;;;;;4979921;28;20769;-81
2023/09/27 03:49:40;;;;;;;0.10;0.10;;;12.90;99.90;;;;;;4980819;28;20305;-81
2023/09/27 03:52:09;;;;;;;0.10;0.10;;;12.90;99.90;;;;;;4979937;28;20684;-81
2023/09/27 03:54:35;;;;;;;0.10;0.10;;;13.00;99.90;;;;;;4981097;28;20187;-81
2023/09/27 03:57:00;;;;;;;0.07;0.07;;;13.10;99.90;;;;;;4996706;28;20221;-81
2023/09/27 03:59:26;;;;;;;0.10;0.10;;;13.20;99.90;;;;;;4980744;28;20305;-81
2023/09/27 04:01:51;;;;;;;0.10;0.10;;;13.30;99.90;;;;;;4981395;28;20192;-81
2023/09/27 04:04:18;;;;;;;0.10;0.10;;;13.20;99.90;;;;;;4979873;28;20203;-81
2023/09/27 04:06:44;;;;;;;0.10;0.10;;;13.10;99.90;;;;;;4997051;28;20201;-81
2023/09/27 04:09:10;;;;;;;0.10;0.10;;;13.00;99.90;;;;;;4981094;28;20249;-81
2023/09/27 04:11:36;;;;;;;0.10;0.10;;;12.80;99.90;;;;;;4981394;28;20589;-81
2023/09/27 04:14:04;;;;;;;0.10;0.10;;;12.70;99.90;;;;;;4980256;28;20219;-81
2023/09/27 04:16:30;;;;;;;0.10;0.10;;;12.80;99.90;;;;;;4980366;28;20626;-82
2023/09/27 04:18:59;;;;;;;0.10;0.10;;;12.80;99.90;;;;;;4978443;28;20251;-81
2023/09/27 04:21:25;;;;;;;0.10;0.10;;;13.00;99.90;;;;;;4977715;28;20553;-81
2023/09/27 04:23:59;;;;;;;0.00;0.00;;;13.00;99.90;;;;;;4981214;28;20246;-81
2023/09/27 04:26:24;;;;;;;0.10;0.10;;;13.10;99.90;;;;;;4977009;28;20194;-81
2023/09/27 04:28:51;;;;;;;0.10;0.10;;;13.20;99.90;;;;;;4979982;28;20280;-81
2023/09/27 04:31:17;;;;;;;0.10;0.10;;;13.20;99.90;;;;;;4979114;28;20232;-81
2023/09/27 04:33:44;;;;;;;0.10;0.10;;;13.20;99.90;;;;;;4975847;28;20193;-81
2023/09/27 04:36:15;;;;;;;0.10;0.10;;;13.20;99.90;;;;;;4977516;28;20188;-81
2023/09/27 04:38:42;;;;;;;0.10;0.10;;;13.20;99.90;;;;;;4981843;28;20212;-81
2023/09/27 04:41:08;;;;;;;0.10;0.10;;;13.10;99.90;;;;;;4985437;28;20244;-81
2023/09/27 04:43:34;;;;;;;0.10;0.10;;;13.20;99.90;;;;;;4978282;28;20628;-81
2023/09/27 04:45:59;;;;;;;0.10;0.10;;;13.10;99.90;;;;;;4974954;28;20182;-82
2023/09/27 04:48:25;;;;;;;0.10;0.10;;;13.20;99.90;;;;;;4979752;28;20214;-81
2023/09/27 04:50:50;;;;;;;0.10;0.10;;;13.10;99.90;;;;;;4977098;28;20631;-80
2023/09/27 04:53:16;;;;;;;0.10;0.10;;;13.20;99.90;;;;;;4979984;28;20250;-80
2023/09/27 04:55:42;;;;;;;0.10;0.10;;;13.20;99.90;;;;;;4977540;28;20184;-80
2023/09/27 04:58:07;;;;;;;0.10;0.10;;;13.20;99.90;;;;;;4992987;28;20954;-80
2023/09/27 05:00:33;;;;;;;0.10;0.10;;;13.20;99.90;;;;;;4970227;28;20200;-80
2023/09/27 05:02:58;;;;;;;0.10;0.10;;;13.20;99.90;;;;;;4977294;28;20220;-80
2023/09/27 05:05:24;;;;;;;0.10;0.10;;;13.30;99.90;;;;;;4975081;28;20196;-80
2023/09/27 05:07:52;;;;;;;0.10;0.10;;;13.30;99.90;;;;;;4974102;28;20196;-80
2023/09/27 05:10:17;;;;;;;0.10;0.10;;;13.30;99.90;;;;;;4991205;28;21255;-81
2023/09/27 05:12:43;;;;;;;0.10;0.10;;;13.20;99.90;;;;;;4976311;28;20194;-81
2023/09/27 05:15:09;;;;;;;0.10;0.10;;;13.20;99.90;;;;;;4977290;28;20193;-81
2023/09/27 05:17:35;;;;;;;0.10;0.10;;;13.30;99.90;;;;;;4974726;28;20213;-81
2023/09/27 05:20:06;;;;;;;0.10;0.10;;;13.30;99.90;;;;;;4978634;28;20337;-81
2023/09/27 05:22:31;;;;;;;0.10;0.10;;;13.20;99.90;;;;;;4977879;28;20282;-82
2023/09/27 05:24:57;;;;;;;0.10;0.10;;;13.20;99.90;;;;;;4976558;28;20722;-81
2023/09/27 05:27:22;;;;;;;0.10;0.10;;;13.10;99.90;;;;;;4976774;28;20204;-81
2023/09/27 05:29:48;;;;;;;0.10;0.10;;;13.10;99.90;;;;;;4978021;28;20299;-79
2023/09/27 05:32:13;;;;;;;0.10;0.10;;;13.00;99.90;;;;;;4985999;28;20191;-79
2023/09/27 05:34:39;;;;;;;0.10;0.10;;;13.00;99.90;;;;;;4995812;28;20301;-80
2023/09/27 05:37:05;;;;;;;0.10;0.10;;;13.00;99.90;;;;;;5000303;28;20217;-79
2023/09/27 05:39:30;;;;;;;0.10;0.10;;;12.90;99.90;;;;;;4995539;28;20208;-79
2023/09/27 05:41:56;;;;;;;0.00;0.00;;;12.90;99.90;;;;;;4996069;28;20198;-79
2023/09/27 05:44:22;;;;;;;0.00;0.00;;;12.90;99.90;;;;;;4993926;28;20180;-79
2023/09/27 05:46:48;;;;;;;0.10;0.10;;;12.90;99.90;;;;;;4991540;28;20196;-79
2023/09/27 05:49:14;;;;;;;0.10;0.10;;;12.90;99.90;;;;;;5013889;28;20206;-80
2023/09/27 05:51:40;;;;;;;0.10;0.10;;;12.70;99.90;;;;;;4983416;28;20254;-78
2023/09/27 05:54:06;;;;;;;0.10;0.10;;;12.60;99.90;;;;;;4979612;28;20279;-78
2023/09/27 05:56:37;;;;;;;0.10;0.10;;;12.50;99.90;;;;;;4981243;28;20214;-80
2023/09/27 05:59:08;;;;;;;0.10;0.10;;;12.70;99.90;;;;;;4982208;28;20680;-79
2023/09/27 06:01:34;;;;;;;0.10;0.10;;;12.70;99.90;;;;;;4980129;28;20772;-78
2023/09/27 06:04:00;;;;;;;0.10;0.10;;;12.90;99.90;;;;;;4982156;28;20200;-81
2023/09/27 06:06:26;;;;;;;0.10;0.10;;;13.10;99.90;;;;;;4983023;28;20578;-79
2023/09/27 06:08:51;;;;;;;0.10;0.10;;;13.30;99.90;;;;;;4984209;28;20604;-79
2023/09/27 06:11:17;;;;;;;0.10;0.10;;;13.30;99.90;;;;;;4983296;28;20561;-80
2023/09/27 06:13:43;;;;;;;0.10;0.10;;;13.50;99.90;;;;;;4985835;28;20202;-80
2023/09/27 06:16:17;;;;;;;0.10;0.10;;;13.60;99.90;;;;;;4982663;28;20182;-79
2023/09/27 06:18:43;;;;;;;0.00;0.00;;;13.80;99.90;;;;;;4975226;28;20225;-79
2023/09/27 06:21:09;;;;;;;0.10;0.10;;;14.00;99.90;;;;;;4984448;28;20219;-79
2023/09/27 06:23:35;;;;;;;0.10;0.10;;;14.10;99.90;;;;;;4982077;28;20186;-79
2023/09/27 06:26:01;;;;;;;0.07;0.07;;;14.20;99.90;;;;;;4983749;28;20184;-81
2023/09/27 06:28:27;;;;;;;0.10;0.10;;;14.40;99.90;;;;;;4980492;28;20835;-82
2023/09/27 06:30:52;;;;;;;0.10;0.10;;;14.50;99.90;;;;;;4980468;28;20190;-82
2023/09/27 06:33:18;;;;;;;0.10;0.10;;;14.60;99.90;;;;;;4981442;28;20186;-82
2023/09/27 06:35:43;;;;;;;0.10;0.10;;;14.70;99.90;;;;;;4983084;28;20241;-83
2023/09/27 06:38:09;;;;;;;0.10;0.10;;;14.80;99.90;;;;;;4979330;28;20218;-82
2023/09/27 06:40:35;;;;;;;0.10;0.10;;;14.90;99.90;;;;;;4981009;28;20187;-82
2023/09/27 06:43:01;;;;;;;0.03;0.03;;;15.10;99.90;;;;;;4984580;28;20229;-82
2023/09/27 06:45:27;;;;;;;0.10;0.10;;;15.20;99.90;;;;;;4981737;28;20683;-82
2023/09/27 06:47:52;;;;;;;0.10;0.10;;;15.40;99.90;;;;;;4982670;28;20191;-83
2023/09/27 06:50:19;;;;;;;0.10;0.10;;;15.50;99.90;;;;;;4978886;28;20211;-82
2023/09/27 06:52:45;;;;;;;0.10;0.10;;;15.60;99.90;;;;;;4981727;28;20304;-82
2023/09/27 06:55:11;;;;;;;0.00;0.00;;;15.70;99.90;;;;;;4984956;28;20195;-83
2023/09/27 06:57:40;;;;;;;0.10;0.10;;;15.70;99.90;;;;;;4985266;28;20557;-82
2023/09/27 07:00:10;;;;;;;0.00;0.00;;;15.90;99.90;;;;;;4982209;28;20294;-82
2023/09/27 07:02:35;;;;;;;0.10;0.10;;;15.80;99.90;;;;;;4981959;28;20197;-82
2023/09/27 07:05:01;;;;;;;0.10;0.10;;;15.90;99.90;;;;;;4984897;28;20206;-82
2023/09/27 07:07:29;;;;;;;0.10;0.10;;;16.10;99.90;;;;;;4982624;28;20191;-82
2023/09/27 07:09:55;;;;;;;0.00;0.00;;;16.30;99.90;;;;;;4984195;28;20295;-82
2023/09/27 07:12:21;;;;;;;0.10;0.10;;;16.40;99.90;;;;;;4982920;28;20283;-82
2023/09/27 07:14:46;;;;;;;0.10;0.10;;;16.50;99.90;;;;;;4984614;28;21034;-82
2023/09/27 07:17:12;;;;;;;0.10;0.10;;;16.60;99.90;;;;;;4983957;28;20199;-82
2023/09/27 07:19:38;;;;;;;0.10;0.10;;;16.60;99.90;;;;;;4984060;28;20210;-82
2023/09/27 07:22:03;;;;;;;0.10;0.10;;;16.80;99.90;;;;;;4983905;28;20960;-82
2023/09/27 07:24:33;;;;;;;0.10;0.10;;;16.90;99.90;;;;;;4984210;28;20179;-82
2023/09/27 07:26:58;;;;;;;0.10;0.10;;;17.00;99.90;;;;;;4982226;28;20176;-81
2023/09/27 07:29:24;;;;;;;0.13;0.13;;;17.10;99.90;;;;;;4983227;28;20207;-82
2023/09/27 07:31:49;;;;;;;0.10;0.10;;;17.20;99.90;;;;;;4982303;28;20307;-82
2023/09/27 07:34:15;;;;;;;0.10;0.10;;;17.20;99.90;;;;;;4985648;28;20184;-82
2023/09/27 07:36:44;;;;;;;0.10;0.10;;;17.30;99.90;;;;;;4982127;28;20303;-79
2023/09/27 07:39:09;;;;;;;0.10;0.10;;;17.50;99.90;;;;;;4984055;28;20306;-82
2023/09/27 07:41:35;;;;;;;0.10;0.10;;;17.70;99.90;;;;;;4982848;28;20180;-82
2023/09/27 07:44:01;;;;;;;0.10;0.10;;;17.80;99.90;;;;;;4985752;28;20195;-82
2023/09/27 07:46:29;;;;;;;0.10;0.10;;;17.90;99.90;;;;;;4984006;28;20682;-82
2023/09/27 07:48:55;;;;;;;0.10;0.10;;;17.80;99.90;;;;;;4984785;28;20208;-82
2023/09/27 07:51:22;;;;;;;0.10;0.10;;;17.90;99.90;;;;;;4982786;28;20267;-81
2023/09/27 07:53:48;;;;;;;0.10;0.10;;;18.00;99.90;;;;;;4983041;28;20691;-82
2023/09/27 07:56:23;;;;;;;0.10;0.10;;;18.10;99.90;;;;;;4982794;28;20184;-82
2023/09/27 07:58:51;;;;;;;0.10;0.10;;;18.20;99.90;;;;;;4984105;28;20202;-82
2023/09/27 08:01:20;;;;;;;0.10;0.10;;;18.30;99.90;;;;;;4985185;28;20188;-82
2023/09/27 08:03:51;;;;;;;0.10;0.10;;;18.40;99.90;;;;;;4982913;28;20292;-79
2023/09/27 08:06:17;;;;;;;0.10;0.10;;;18.20;99.90;;;;;;4984104;28;20195;-79
2023/09/27 08:08:43;;;;;;;0.10;0.10;;;18.30;99.90;;;;;;4981285;28;20232;-80
2023/09/27 08:11:13;;;;;;;0.10;0.10;;;18.30;99.90;;;;;;4983412;28;20500;-80
2023/09/27 08:13:39;;;;;;;0.10;0.10;;;18.40;99.90;;;;;;4981113;28;20190;-80
2023/09/27 08:16:06;;;;;;;0.10;0.10;;;18.30;99.90;;;;;;4983287;28;20176;-80
2023/09/27 08:18:33;;;;;;;0.10;0.10;;;18.80;99.90;;;;;;4995700;28;20215;-80
2023/09/27 08:20:59;;;;;;;0.10;0.10;;;19.10;99.90;;;;;;4981016;28;20194;-80
2023/09/27 08:23:25;;;;;;;0.10;0.10;;;19.10;99.90;;;;;;4980076;28;20278;-80
2023/09/27 08:25:52;;;;;;;0.10;0.10;;;19.20;99.90;;;;;;4980885;28;20281;-79
2023/09/27 08:28:18;;;;;;;0.10;0.10;;;19.40;99.90;;;;;;4983224;28;20182;-79
2023/09/27 08:30:43;;;;;;;0.10;0.10;;;19.50;99.90;;;;;;4983333;28;20562;-80
2023/09/27 08:33:09;;;;;;;0.10;0.10;;;19.80;99.90;;;;;;4982538;28;20661;-78
2023/09/27 08:35:34;;;;;;;0.10;0.10;;;20.00;99.90;;;;;;4994964;28;20220;-81
2023/09/27 08:38:00;;;;;;;0.10;0.10;;;20.00;99.90;;;;;;4981608;28;20226;-82
2023/09/27 08:40:26;;;;;;;0.10;0.10;;;20.00;99.90;;;;;;4980064;28;20857;-80
2023/09/27 08:42:57;;;;;;;0.10;0.10;;;19.40;99.90;;;;;;4978901;28;20215;-79
2023/09/27 08:45:23;;;;;;;0.10;0.10;;;19.20;99.90;;;;;;4982326;28;20656;-80
2023/09/27 08:47:50;;;;;;;0.10;0.10;;;19.60;99.90;;;;;;4978950;28;20207;-80
2023/09/27 08:50:18;;;;;;;0.10;0.10;;;20.00;99.90;;;;;;4982180;28;20210;-80
2023/09/27 08:52:51;;;;;;;0.10;0.10;;;20.30;99.90;;;;;;4982637;28;20188;-80
2023/09/27 08:55:18;;;;;;;0.10;0.10;;;20.60;99.90;;;;;;4983176;28;20220;-80
2023/09/27 08:57:47;;;;;;;0.10;0.10;;;20.80;99.90;;;;;;4974026;28;20797;-80
2023/09/27 09:00:19;;;;;;;0.10;0.10;;;21.00;99.90;;;;;;4981437;28;20263;-80
2023/09/27 09:02:48;;;;;;;0.10;0.10;;;21.30;99.90;;;;;;4981712;28;20283;-80
2023/09/27 09:05:15;;;;;;;0.10;0.10;;;21.30;99.90;;;;;;4982243;28;20186;-80
2023/09/27 09:07:41;;;;;;;0.10;0.10;;;21.50;99.90;;;;;;4980096;28;20184;-80
2023/09/27 09:10:13;;;;;;;0.10;0.10;;;21.60;99.90;;;;;;4983547;28;20211;-80
2023/09/27 09:12:39;;;;;;;0.10;0.10;;;21.90;99.90;;;;;;4989450;28;20185;-80
2023/09/27 09:15:06;;;;;;;0.10;0.10;;;22.00;99.90;;;;;;4984067;28;20259;-80
2023/09/27 09:17:36;;;;;;;0.10;0.10;;;22.00;99.90;;;;;;4982473;28;20798;-80
2023/09/27 09:20:23;;;;;;;0.10;0.10;;;22.00;99.90;;;;;;4987653;28;20202;-80
2023/09/27 09:22:50;;;;;;;0.10;0.10;;;22.40;99.90;;;;;;4980442;28;20186;-80
2023/09/27 09:25:16;;;;;;;0.10;0.10;;;22.50;99.90;;;;;;4979983;28;20185;-80
2023/09/27 09:27:41;;;;;;;0.10;0.10;;;22.40;99.90;;;;;;4981903;28;20196;-80
2023/09/27 09:30:11;;;;;;;0.10;0.10;;;22.50;99.90;;;;;;4977736;28;20208;-81
2023/09/27 09:32:51;;;;;;;0.10;0.10;;;22.70;99.90;;;;;;4980325;28;20202;-81
2023/09/27 09:35:31;;;;;;;0.10;0.10;;;23.00;99.90;;;;;;4979391;28;20197;-80
2023/09/27 09:37:58;;;;;;;0.10;0.10;;;23.10;99.90;;;;;;4980497;28;20208;-81
2023/09/27 09:40:24;;;;;;;0.10;0.10;;;22.40;99.90;;;;;;4981012;28;20224;-81
2023/09/27 09:42:50;;;;;;;0.10;0.10;;;22.60;99.90;;;;;;4979396;28;20191;-81
2023/09/27 09:45:16;;;;;;;0.10;0.10;;;22.60;99.90;;;;;;4983508;28;20185;-81
2023/09/27 09:47:44;;;;;;;0.10;0.10;;;22.70;99.90;;;;;;4984242;28;20198;-80
2023/09/27 09:50:18;;;;;;;0.10;0.10;;;22.90;99.90;;;;;;4982485;28;20218;-80
2023/09/27 09:52:57;;;;;;;0.10;0.10;;;23.20;99.90;;;;;;4981703;28;20201;-80
2023/09/27 09:55:25;;;;;;;0.10;0.10;;;22.90;99.90;;;;;;4982578;28;20187;-80
2023/09/27 09:57:56;;;;;;;0.10;0.10;;;23.00;99.90;;;;;;4978300;28;20334;-80
2023/09/27 10:00:27;;;;;;;0.10;0.10;;;22.80;99.90;;;;;;4979735;28;20737;-82
2023/09/27 10:03:02;;;;;;;0.10;0.10;;;22.00;99.90;;;;;;4982109;28;20777;-81
2023/09/27 10:05:35;;;;;;;0.10;0.10;;;22.30;99.90;;;;;;4976812;28;20172;-81
2023/09/27 10:08:01;;;;;;;0.10;0.10;;;22.40;99.90;;;;;;4979303;28;20209;-81
2023/09/27 10:10:28;;;;;;;0.10;0.10;;;22.60;99.90;;;;;;4979136;28;20211;-81
2023/09/27 10:12:55;;;;;;;0.10;0.10;;;22.90;99.90;;;;;;4981029;28;20192;-81
2023/09/27 10:15:22;;;;;;;0.10;0.10;;;23.00;99.90;;;;;;4982242;28;21041;-83
2023/09/27 10:17:48;;;;;;;0.10;0.10;;;23.60;99.90;;;;;;4987513;28;20246;-83
2023/09/27 10:20:17;;;;;;;0.10;0.10;;;24.00;99.90;;;;;;4978633;28;20294;-82
2023/09/27 10:22:47;;;;;;;0.10;0.10;;;24.00;99.90;;;;;;4980898;28;20188;-82
2023/09/27 10:25:28;;;;;;;0.10;0.10;;;24.10;99.90;;;;;;4979230;28;20183;-81
2023/09/27 10:28:06;;;;;;;0.10;0.10;;;24.40;99.90;;;;;;4979409;28;20826;-81
2023/09/27 10:30:41;;;;;;;0.10;0.10;;;24.40;99.90;;;;;;4992726;28;20306;-82
2023/09/27 10:33:30;;;;;;;0.10;0.10;;;24.60;99.90;;;;;;4993147;28;20183;-82
2023/09/27 10:36:01;;;;;;;0.10;0.10;;;24.40;99.90;;;;;;4969973;28;20678;-81
2023/09/27 10:38:42;;;;;;;0.10;0.10;;;24.10;99.90;;;;;;4990281;28;20751;-83
2023/09/27 10:41:08;;;;;;;0.10;0.10;;;23.80;99.90;;;;;;4985745;28;20184;-81
2023/09/27 10:43:42;;;;;;;0.10;0.10;;;23.50;99.90;;;;;;4983805;28;20196;-81
2023/09/27 10:46:08;;;;;;;0.10;0.10;;;23.10;99.90;;;;;;4989474;28;20189;-81
2023/09/27 10:48:36;;;;;;;0.10;0.10;;;22.90;99.90;;;;;;4983833;28;20207;-82
2023/09/27 10:51:02;;;;;;;0.10;0.10;;;23.20;99.90;;;;;;4986125;28;20231;-81
2023/09/27 10:53:28;;;;;;;0.10;0.10;;;23.30;99.90;;;;;;4975955;28;20199;-81
2023/09/27 10:55:53;;;;;;;0.10;0.10;;;23.50;99.90;;;;;;4982544;28;20196;-81
2023/09/27 10:58:19;;;;;;;0.10;0.10;;;23.60;99.90;;;;;;4982756;28;20760;-82
2023/09/27 11:00:55;;;;;;;0.10;0.10;;;23.80;99.90;;;;;;4984494;28;20197;-82
2023/09/27 11:03:21;;;;;;;0.10;0.10;;;24.00;99.90;;;;;;4981794;28;20207;-81
2023/09/27 11:05:47;;;;;;;0.10;0.10;;;23.60;99.90;;;;;;4982143;28;20196;-82
2023/09/27 11:08:21;;;;;;;0.10;0.10;;;23.30;99.90;;;;;;4982519;28;20188;-81
2023/09/27 11:10:48;;;;;;;0.10;0.10;;;23.10;99.90;;;;;;4986875;28;20184;-82
2023/09/27 11:13:13;;;;;;;0.10;0.10;;;23.30;99.90;;;;;;4987074;28;20200;-81
2023/09/27 11:15:40;;;;;;;0.10;0.10;;;23.80;99.90;;;;;;4986643;28;20189;-82
2023/09/27 11:18:09;;;;;;;0.10;0.10;;;24.20;99.90;;;;;;4984902;28;20223;-80
2023/09/27 11:20:36;;;;;;;0.10;0.10;;;24.30;99.90;;;;;;4984786;28;20261;-81
2023/09/27 11:23:02;;;;;;;0.10;0.10;;;24.50;99.90;;;;;;4985164;28;20188;-81
2023/09/27 11:25:33;;;;;;;0.10;0.10;;;24.70;99.90;;;;;;4982187;28;20189;-82
2023/09/27 11:27:59;;;;;;;0.10;0.10;;;24.50;99.90;;;;;;4984974;28;20203;-82
2023/09/27 11:30:32;;;;;;;0.10;0.10;;;24.70;99.90;;;;;;4987175;28;20574;-81
2023/09/27 11:32:59;;;;;;;0.10;0.10;;;24.90;99.90;;;;;;4985023;28;20326;-81
2023/09/27 11:35:26;;;;;;;0.10;0.10;;;24.70;99.90;;;;;;4984063;28;20192;-81
2023/09/27 11:38:11;;;;;;;0.10;0.10;;;24.40;99.90;;;;;;4986178;28;20279;-81
2023/09/27 11:40:40;;;;;;;0.10;0.10;;;24.50;99.90;;;;;;4985997;28;20212;-81
2023/09/27 11:43:05;;;;;;;0.10;0.10;;;24.40;99.90;;;;;;4985041;28;20195;-82
2023/09/27 11:45:48;;;;;;;0.10;0.10;;;24.80;99.90;;;;;;4986933;28;20189;-81
2023/09/27 11:48:15;;;;;;;0.10;0.10;;;24.60;99.90;;;;;;4984664;28;20206;-81
2023/09/27 11:50:40;;;;;;;0.10;0.10;;;24.90;99.90;;;;;;4991242;28;20224;-82
2023/09/27 11:53:06;;;;;;;0.10;0.10;;;25.20;99.90;;;;;;4984563;28;20204;-81
2023/09/27 11:55:32;;;;;;;0.10;0.10;;;25.30;99.90;;;;;;4984240;28;20242;-81
2023/09/27 11:57:58;;;;;;;0.10;0.10;;;25.40;99.90;;;;;;4981373;28;20222;-81
2023/09/27 12:00:24;;;;;;;0.10;0.10;;;25.30;99.90;;;;;;4982714;28;20236;-81
2023/09/27 12:02:51;;;;;;;0.10;0.10;;;25.30;99.90;;;;;;4981598;28;20224;-82
2023/09/27 12:05:17;;;;;;;0.10;0.10;;;25.30;99.90;;;;;;4976590;28;20200;-82
2023/09/27 12:07:43;;;;;;;0.10;0.10;;;25.40;99.90;;;;;;4979086;28;20200;-81
2023/09/27 12:10:10;;;;;;;0.10;0.10;;;25.10;99.90;;;;;;4978730;28;20216;-81
2023/09/27 12:12:36;;;;;;;0.10;0.10;;;25.30;99.90;;;;;;4982194;28;20188;-81
2023/09/27 12:15:03;;;;;;;0.10;0.10;;;25.40;99.90;;;;;;4996030;28;20722;-81
2023/09/27 12:17:29;;;;;;;0.87;0.87;;;25.10;99.90;;;;;;4979295;28;20262;-82
2023/09/27 12:19:54;;;;;;;0.10;0.10;;;25.30;99.90;;;;;;4984609;28;20208;-81
2023/09/27 12:22:20;;;;;;;0.10;0.10;;;25.50;99.90;;;;;;4986826;28;20192;-81
2023/09/27 12:24:46;;;;;;;0.10;0.10;;;25.60;99.90;;;;;;4984810;28;20270;-81
2023/09/27 12:27:12;;;;;;;0.10;0.10;;;25.80;99.90;;;;;;4999824;28;20267;-82
2023/09/27 12:29:37;;;;;;;0.10;0.10;;;25.50;99.90;;;;;;4986916;28;20208;-82
2023/09/27 12:32:03;;;;;;;0.10;0.10;;;25.40;99.90;;;;;;4982827;28;20323;-81
2023/09/27 12:34:30;;;;;;;0.10;0.10;;;25.30;99.90;;;;;;4981551;28;20188;-81
2023/09/27 12:36:55;;;;;;;0.10;0.10;;;25.50;99.90;;;;;;4976998;28;20455;-80
2023/09/27 12:39:21;;;;;;;0.10;0.10;;;25.50;99.90;;;;;;4983906;28;20211;-81
2023/09/27 12:41:46;;;;;;;0.10;0.10;;;25.60;99.90;;;;;;4983784;28;20184;-81
2023/09/27 12:44:12;;;;;;;0.10;0.10;;;25.50;99.90;;;;;;4979931;28;20184;-80
2023/09/27 12:46:38;;;;;;;0.10;0.10;;;25.10;99.90;;;;;;4982736;28;20203;-80